Teruhou Maru No.22 — JD3202 — position and weather

sailwx.info

Track history (hours):
 
Tides and Currents Weather Stations Pressure Air Temp Water Temp Dewpoint Dewpoint Depression Visibility Wind Speed Wind Dir Waves Ship Positions

Teruhou Maru No.22

Last reported at 2014-Aug-17 06:18 UTC. Time now 2014-Aug-23 03:35 UTC.
Position N 34°41' E 134°48'.

Length 76 m; draft 4 m.

Type: Cargo ship. MMSI: 431002552.

Date/timePositionNaut miles runAvg speedWind from/ knotsBaromVisibWave heightAir tempDewpointWater temp
2014-Aug-17 06:18N 34°41' E 134°48'9 1.0
2014-Aug-16 21:33N 34°38' E 134°58'8 8.4
2014-Aug-16 20:33N 34°31' E 135°05'  
2014-Aug-13 12:22N 34°48' E 139°14'3611.3
2014-Aug-13 09:13N 34°54' E 139°57'74 9.6
2014-Aug-13 01:32N 35°58' E 140°43'3 2.9
2014-Aug-13 00:28N 35°56' E 140°40'0 0.0
2014-Aug-12 23:25N 35°56' E 140°40'0 0.1
2014-Aug-12 22:31N 35°56' E 140°40'0 0.0
2014-Aug-12 21:32N 35°56' E 140°40'0 0.1
2014-Aug-12 20:33N 35°56' E 140°40'0 0.1
2014-Aug-12 19:31N 35°56' E 140°40'0 0.0
2014-Aug-12 18:18N 35°56' E 140°40'0 0.0
2014-Aug-12 16:17N 35°56' E 140°40'0 0.0
2014-Aug-12 15:28N 35°56' E 140°40'1 1.2
2014-Aug-12 14:29N 35°55' E 140°41'  
2014-Aug-07 13:32N 36°05' E 140°54'3411.3
2014-Aug-07 10:30N 35°31' E 140°45'4012.6
2014-Aug-07 07:20N 35°02' E 140°12'1214.4
2014-Aug-07 06:29N 34°55' E 139°60'  
Track history (hours):
 
Tides and Currents Weather Stations Pressure Air Temp Water Temp Dewpoint Dewpoint Depression Visibility Wind Speed Wind Dir Waves Ship Positions

Teruhou Maru No.22

Last reported at 2014-Aug-17 06:18 UTC. Time now 2014-Aug-23 03:35 UTC.
Position N 34°41' E 134°48'.

Length 76 m; draft 4 m.

Type: Cargo ship. MMSI: 431002552.

Date/timePositionNaut miles runAvg speedWind from/ knotsBaromVisibWave heightAir tempDewpointWater temp
2014-Aug-17 06:18N 34°41' E 134°48'9 1.0
2014-Aug-16 21:33N 34°38' E 134°58'8 8.4
2014-Aug-16 20:33N 34°31' E 135°05'  
2014-Aug-13 12:22N 34°48' E 139°14'3611.3
2014-Aug-13 09:13N 34°54' E 139°57'74 9.6
2014-Aug-13 01:32N 35°58' E 140°43'3 2.9
2014-Aug-13 00:28N 35°56' E 140°40'0 0.0
2014-Aug-12 23:25N 35°56' E 140°40'0 0.1
2014-Aug-12 22:31N 35°56' E 140°40'0 0.0
2014-Aug-12 21:32N 35°56' E 140°40'0 0.1
2014-Aug-12 20:33N 35°56' E 140°40'0 0.1
2014-Aug-12 19:31N 35°56' E 140°40'0 0.0
2014-Aug-12 18:18N 35°56' E 140°40'0 0.0
2014-Aug-12 16:17N 35°56' E 140°40'0 0.0
2014-Aug-12 15:28N 35°56' E 140°40'1 1.2
2014-Aug-12 14:29N 35°55' E 140°41'  
2014-Aug-07 13:32N 36°05' E 140°54'3411.3
2014-Aug-07 10:30N 35°31' E 140°45'4012.6
2014-Aug-07 07:20N 35°02' E 140°12'1214.4
2014-Aug-07 06:29N 34°55' E 139°60'  

Dump ship's entire track history